createdAt,value
2023-05-05T00:02:03.975Z,62.93
2023-05-05T00:04:30.487Z,63.03
2023-05-05T00:06:57.406Z,63.13
2023-05-05T00:09:23.775Z,62.83
2023-05-05T00:11:50.117Z,64.15
2023-05-05T00:14:17.078Z,62.99
2023-05-05T00:16:43.730Z,65.16
2023-05-05T00:19:10.257Z,62.51
2023-05-05T00:21:36.995Z,63.01
2023-05-05T00:24:03.598Z,62.86
2023-05-05T00:26:30.159Z,63.54
2023-05-05T00:28:56.881Z,62.62
2023-05-05T00:31:23.743Z,63.07
2023-05-05T00:33:50.404Z,62.18
2023-05-05T00:36:16.874Z,64.08
2023-05-05T00:38:43.721Z,65.48
2023-05-05T00:41:10.125Z,65.94
2023-05-05T00:43:36.751Z,63.73
2023-05-05T00:46:19.382Z,63.51
2023-05-05T00:48:45.944Z,64.30
2023-05-05T00:51:13.828Z,66.07
2023-05-05T00:53:42.952Z,64.98
2023-05-05T00:56:09.515Z,62.54
2023-05-05T00:58:36.748Z,65.79
2023-05-05T01:01:03.197Z,64.05
2023-05-05T01:03:29.598Z,63.65
2023-05-05T01:06:25.756Z,64.23
2023-05-05T01:09:11.508Z,64.60
2023-05-05T01:12:04.202Z,64.99
2023-05-05T01:14:39.670Z,64.78
2023-05-05T01:17:19.609Z,65.04
2023-05-05T01:19:58.689Z,65.73
2023-05-05T01:22:41.666Z,65.75
2023-05-05T01:25:26.846Z,65.42
2023-05-05T01:27:59.546Z,66.03
2023-05-05T01:30:46.309Z,66.38
2023-05-05T01:33:19.668Z,66.71
2023-05-05T01:35:53.330Z,67.72
2023-05-05T01:38:24.878Z,68.35
2023-05-05T01:41:18.106Z,68.73
2023-05-05T01:43:47.187Z,69.04
2023-05-05T01:46:15.916Z,69.25
2023-05-05T01:48:43.119Z,68.07
2023-05-05T01:51:11.219Z,69.74
2023-05-05T01:53:39.265Z,69.57
2023-05-05T01:56:06.820Z,70.45
2023-05-05T01:58:34.520Z,71.26
2023-05-05T02:01:01.941Z,71.86
2023-05-05T02:03:31.427Z,71.31
2023-05-05T02:06:00.433Z,71.85
2023-05-05T02:08:28.623Z,72.01
2023-05-05T02:10:55.937Z,71.48
2023-05-05T02:13:24.817Z,72.26
2023-05-05T02:15:51.973Z,70.44
2023-05-05T02:18:19.920Z,72.10
2023-05-05T02:20:47.038Z,71.55
2023-05-05T02:23:13.498Z,74.56
2023-05-05T02:25:45.934Z,75.85
2023-05-05T02:28:25.522Z,76.27
2023-05-05T02:31:00.599Z,76.94
2023-05-05T02:33:31.819Z,78.35
2023-05-05T02:36:04.282Z,78.58
2023-05-05T02:38:32.551Z,78.04
2023-05-05T02:41:01.465Z,79.14
2023-05-05T02:43:31.963Z,78.20
2023-05-05T02:45:58.498Z,77.41
2023-05-05T02:48:24.992Z,74.21
2023-05-05T02:50:51.686Z,76.64
2023-05-05T02:53:24.558Z,77.92
2023-05-05T02:55:56.602Z,72.24
2023-05-05T02:58:42.685Z,75.70
2023-05-05T03:01:37.143Z,76.76
2023-05-05T03:04:10.434Z,77.87
2023-05-05T03:06:41.711Z,78.92
2023-05-05T03:09:27.891Z,78.90
2023-05-05T03:11:56.441Z,78.92
2023-05-05T03:14:24.300Z,74.91
2023-05-05T03:16:52.487Z,77.77
2023-05-05T03:19:21.350Z,72.08
2023-05-05T03:21:47.786Z,73.81
2023-05-05T03:24:16.087Z,73.34
2023-05-05T03:26:44.006Z,74.97
2023-05-05T03:29:10.426Z,77.53
2023-05-05T03:31:36.798Z,76.67
2023-05-05T03:34:03.619Z,75.57
2023-05-05T03:36:30.387Z,77.27
2023-05-05T03:38:56.762Z,77.52
2023-05-05T03:41:23.674Z,75.21
2023-05-05T03:43:51.323Z,76.85
2023-05-05T03:46:17.808Z,77.57
2023-05-05T03:48:44.457Z,75.04
2023-05-05T03:51:12.222Z,74.96
2023-05-05T03:53:38.724Z,77.86
2023-05-05T03:56:05.496Z,77.88
2023-05-05T03:58:31.992Z,77.73
2023-05-05T04:00:58.385Z,78.29
2023-05-05T04:03:25.031Z,79.58
2023-05-05T04:05:51.617Z,79.04
2023-05-05T04:08:18.072Z,79.14
2023-05-05T04:10:45.667Z,78.02
2023-05-05T04:13:12.198Z,79.80
2023-05-05T04:15:43.684Z,79.27
2023-05-05T04:18:10.179Z,77.83
2023-05-05T04:20:36.681Z,78.95
2023-05-05T04:23:03.049Z,79.63
2023-05-05T04:25:29.644Z,78.29
2023-05-05T04:27:56.422Z,79.81
2023-05-05T04:30:22.841Z,78.46
2023-05-05T04:32:49.243Z,79.15
2023-05-05T04:35:15.600Z,79.83
2023-05-05T04:37:42.027Z,78.29
2023-05-05T04:40:09.294Z,79.60
2023-05-05T04:42:36.598Z,81.07
2023-05-05T04:45:03.447Z,80.99
2023-05-05T04:47:41.559Z,79.61
2023-05-05T04:50:08.779Z,81.07
2023-05-05T04:52:35.605Z,79.95
2023-05-05T04:55:02.355Z,80.20
2023-05-05T04:57:30.053Z,79.32
2023-05-05T04:59:56.581Z,80.29
2023-05-05T05:02:23.062Z,79.91
2023-05-05T05:04:49.510Z,80.13
2023-05-05T05:07:15.912Z,81.02
2023-05-05T05:09:42.361Z,80.58
2023-05-05T05:12:09.707Z,81.66
2023-05-05T05:14:37.789Z,81.90
2023-05-05T05:17:04.788Z,82.27
2023-05-05T05:19:31.263Z,82.07
2023-05-05T05:21:57.755Z,81.82
2023-05-05T05:24:25.268Z,82.03
2023-05-05T05:26:51.801Z,82.32
2023-05-05T05:29:18.578Z,81.99
2023-05-05T05:31:45.067Z,82.27
2023-05-05T05:34:12.942Z,82.13
2023-05-05T05:36:39.640Z,82.29
2023-05-05T05:39:06.456Z,82.09
2023-05-05T05:41:32.821Z,82.21
2023-05-05T05:43:59.264Z,82.19
2023-05-05T05:46:25.808Z,82.60
2023-05-05T05:48:53.002Z,81.86
2023-05-05T05:51:19.380Z,82.44
2023-05-05T05:53:45.850Z,81.17
2023-05-05T05:56:13.430Z,81.48
2023-05-05T05:58:40.517Z,82.32
2023-05-05T06:01:06.954Z,81.64
2023-05-05T06:03:33.428Z,81.63
2023-05-05T06:05:59.922Z,80.74
2023-05-05T06:08:26.829Z,80.77
2023-05-05T06:10:53.285Z,80.26
2023-05-05T06:13:19.706Z,78.92
2023-05-05T06:15:46.222Z,79.51
2023-05-05T06:18:12.829Z,80.25
2023-05-05T06:20:39.346Z,77.36
2023-05-05T06:23:06.040Z,78.61
2023-05-05T06:25:32.458Z,78.74
2023-05-05T06:27:59.824Z,78.82
2023-05-05T06:30:26.360Z,77.64
2023-05-05T06:32:54.227Z,77.73
2023-05-05T06:35:22.082Z,76.53
2023-05-05T06:37:48.571Z,76.90
2023-05-05T06:40:15.182Z,74.56
2023-05-05T06:42:41.898Z,74.32
2023-05-05T06:45:09.187Z,71.95
2023-05-05T06:47:36.271Z,72.81
2023-05-05T06:50:02.690Z,73.32
2023-05-05T06:52:29.179Z,70.67
2023-05-05T06:54:55.581Z,69.17
2023-05-05T06:57:22.031Z,70.78
2023-05-05T06:59:48.424Z,70.52
2023-05-05T07:02:14.934Z,70.46
2023-05-05T07:04:41.467Z,69.71
2023-05-05T07:07:08.054Z,70.79
2023-05-05T07:09:34.476Z,68.06
2023-05-05T07:12:00.853Z,68.86
2023-05-05T07:14:27.475Z,68.80
2023-05-05T07:16:53.981Z,68.58
2023-05-05T07:19:20.483Z,68.40
2023-05-05T07:21:47.610Z,69.02
2023-05-05T07:24:14.018Z,66.79
2023-05-05T07:26:40.781Z,67.45
2023-05-05T07:29:07.315Z,65.63
2023-05-05T07:31:33.788Z,66.51
2023-05-05T07:34:00.266Z,65.82
2023-05-05T07:36:27.934Z,65.69
2023-05-05T07:38:54.825Z,64.93
2023-05-05T07:41:21.266Z,66.29
2023-05-05T07:43:47.709Z,64.86
2023-05-05T07:46:14.724Z,64.18
2023-05-05T07:48:41.991Z,63.99
2023-05-05T07:51:09.170Z,62.88
2023-05-05T07:53:35.685Z,63.08
2023-05-05T07:56:02.460Z,62.00
2023-05-05T07:58:28.914Z,61.17
2023-05-05T08:00:55.581Z,61.07
2023-05-05T08:03:24.507Z,60.79
2023-05-05T08:05:56.433Z,59.55
2023-05-05T08:08:24.564Z,59.45
2023-05-05T08:10:52.819Z,60.22
2023-05-05T08:13:19.309Z,57.74
2023-05-05T08:15:46.057Z,58.83
2023-05-05T08:18:12.683Z,59.46
2023-05-05T08:20:39.311Z,56.85
2023-05-05T08:23:06.174Z,56.73
2023-05-05T08:25:32.568Z,55.30
2023-05-05T08:27:59.092Z,55.71
2023-05-05T08:30:25.611Z,54.80
2023-05-05T08:32:52.028Z,53.70
2023-05-05T08:35:18.546Z,53.37
2023-05-05T08:37:45.377Z,54.13
2023-05-05T08:40:16.014Z,52.91
2023-05-05T08:42:42.914Z,54.98
2023-05-05T08:45:10.906Z,55.80
2023-05-05T08:47:39.260Z,54.21
2023-05-05T08:50:06.330Z,54.82
2023-05-05T08:52:39.671Z,54.70
2023-05-05T08:55:19.793Z,55.13
2023-05-05T08:57:51.739Z,54.81
2023-05-05T09:00:19.865Z,54.47
2023-05-05T09:02:47.447Z,55.58
2023-05-05T09:05:14.134Z,56.64
2023-05-05T09:07:44.097Z,55.81
2023-05-05T09:10:12.127Z,57.00
2023-05-05T09:12:42.494Z,57.24
2023-05-05T09:15:14.047Z,56.22
2023-05-05T09:17:41.490Z,54.15
2023-05-05T09:20:10.511Z,54.47
2023-05-05T09:22:42.171Z,54.56
2023-05-05T09:25:10.050Z,55.01
2023-05-05T09:27:41.896Z,54.49
2023-05-05T09:30:10.014Z,53.94
2023-05-05T09:32:54.017Z,53.47
2023-05-05T09:35:22.107Z,54.01
2023-05-05T09:37:48.666Z,54.73
2023-05-05T09:40:17.129Z,54.63
2023-05-05T09:42:44.570Z,56.08
2023-05-05T09:45:20.152Z,55.06
2023-05-05T09:47:47.809Z,55.20
2023-05-05T09:50:16.131Z,56.42
2023-05-05T09:52:43.265Z,55.96
2023-05-05T09:55:18.512Z,56.88
2023-05-05T09:57:47.290Z,57.16
2023-05-05T10:00:14.700Z,55.85
2023-05-05T10:02:41.976Z,56.33
2023-05-05T10:05:14.287Z,56.67
2023-05-05T10:07:43.484Z,56.42
2023-05-05T10:10:14.965Z,56.76
2023-05-05T10:12:42.198Z,57.00
2023-05-05T10:15:10.206Z,56.68
2023-05-05T10:17:57.962Z,58.43
2023-05-05T10:20:36.560Z,63.88
2023-05-05T10:23:06.646Z,65.32
2023-05-05T10:25:40.077Z,67.34
2023-05-05T10:28:09.530Z,67.89
2023-05-05T10:30:43.435Z,67.79
2023-05-05T10:33:30.848Z,68.44
2023-05-05T10:36:01.442Z,69.63
2023-05-05T10:38:31.112Z,68.67
2023-05-05T10:41:01.965Z,69.62
2023-05-05T10:43:30.099Z,69.56
2023-05-05T10:45:57.548Z,69.04
2023-05-05T10:48:36.262Z,68.60
2023-05-05T10:51:30.972Z,69.78
2023-05-05T10:54:10.699Z,70.87
2023-05-05T10:56:41.224Z,70.73
2023-05-05T10:59:35.780Z,71.13
2023-05-05T11:02:17.999Z,71.59
2023-05-05T11:04:44.643Z,72.36
2023-05-05T11:07:14.780Z,72.12
2023-05-05T11:09:59.108Z,73.02
2023-05-05T11:12:25.693Z,71.83
2023-05-05T11:15:24.299Z,72.52
2023-05-05T11:17:51.107Z,73.71
2023-05-05T11:20:18.204Z,74.79
2023-05-05T11:23:03.149Z,73.13
2023-05-05T11:25:36.049Z,73.67
2023-05-05T11:28:16.608Z,73.84
2023-05-05T11:30:55.698Z,73.80
2023-05-05T11:33:25.960Z,75.04
2023-05-05T11:36:08.903Z,74.08
2023-05-05T11:38:50.757Z,73.09
2023-05-05T11:41:32.679Z,75.18
2023-05-05T11:44:16.045Z,74.16
2023-05-05T11:47:05.829Z,75.75
2023-05-05T11:49:39.484Z,76.62
2023-05-05T11:52:10.429Z,74.29
2023-05-05T11:54:47.373Z,75.27
2023-05-05T11:57:15.216Z,75.17
2023-05-05T12:00:01.640Z,75.27
2023-05-05T12:02:29.525Z,75.19
2023-05-05T12:04:58.241Z,75.04
2023-05-05T12:07:31.312Z,77.13
2023-05-05T12:09:58.027Z,76.97
2023-05-05T12:12:36.102Z,75.65
2023-05-05T12:15:03.494Z,74.98
2023-05-05T12:17:40.044Z,74.16
2023-05-05T12:20:07.601Z,74.56
2023-05-05T12:22:34.483Z,75.33
2023-05-05T12:25:04.088Z,74.85
2023-05-05T12:27:30.995Z,76.57
2023-05-05T12:30:16.925Z,74.27
2023-05-05T12:32:43.898Z,76.24
2023-05-05T12:35:11.072Z,76.15
2023-05-05T12:37:38.204Z,77.24
2023-05-05T12:40:06.495Z,77.61
2023-05-05T12:42:38.924Z,78.93
2023-05-05T12:45:06.998Z,77.34
2023-05-05T12:47:33.660Z,77.34
2023-05-05T12:50:00.468Z,78.82
2023-05-05T12:52:45.727Z,76.72
2023-05-05T12:55:13.069Z,77.40
2023-05-05T12:57:58.548Z,76.89
2023-05-05T13:00:25.556Z,77.84
2023-05-05T13:02:53.017Z,79.27
2023-05-05T13:05:40.913Z,78.05
2023-05-05T13:08:07.496Z,78.66
2023-05-05T13:10:34.163Z,78.35
2023-05-05T13:13:00.684Z,76.83
2023-05-05T13:15:27.947Z,77.83
2023-05-05T13:18:01.542Z,77.70
2023-05-05T13:20:28.144Z,76.01
2023-05-05T13:22:54.600Z,78.29
2023-05-05T13:25:21.073Z,77.04
2023-05-05T13:27:47.523Z,77.40
2023-05-05T13:30:14.348Z,77.19
2023-05-05T13:32:41.350Z,77.17
2023-05-05T13:35:08.745Z,76.57
2023-05-05T13:37:35.682Z,78.85
2023-05-05T13:40:02.293Z,77.60
2023-05-05T13:42:28.663Z,79.16
2023-05-05T13:44:55.151Z,76.71
2023-05-05T13:47:21.775Z,76.96
2023-05-05T13:49:48.757Z,76.98
2023-05-05T13:52:15.268Z,76.93
2023-05-05T13:54:41.943Z,77.73
2023-05-05T13:57:11.074Z,77.62
2023-05-05T13:59:37.487Z,77.24
2023-05-05T14:02:03.891Z,77.03
2023-05-05T14:04:30.435Z,75.95
2023-05-05T14:06:58.194Z,76.17
2023-05-05T14:09:24.873Z,77.39
2023-05-05T14:11:51.479Z,76.80
2023-05-05T14:14:19.555Z,75.81
2023-05-05T14:16:48.514Z,76.61
2023-05-05T14:19:16.319Z,78.69
2023-05-05T14:21:42.664Z,78.49
2023-05-05T14:24:09.153Z,78.80
2023-05-05T14:26:35.617Z,77.11
2023-05-05T14:29:02.065Z,75.73
2023-05-05T14:31:28.617Z,76.60
2023-05-05T14:33:55.161Z,76.94
2023-05-05T14:36:21.675Z,75.69
2023-05-05T14:38:48.132Z,76.63
2023-05-05T14:41:14.508Z,75.82
2023-05-05T14:43:40.950Z,76.24
2023-05-05T14:46:07.518Z,76.43
2023-05-05T14:48:34.437Z,78.11
2023-05-05T14:51:00.797Z,76.99
2023-05-05T14:53:27.221Z,76.25
2023-05-05T14:55:53.650Z,76.54
2023-05-05T14:58:22.390Z,77.29
2023-05-05T15:00:48.887Z,77.35
2023-05-05T15:03:15.445Z,76.86
2023-05-05T15:05:41.871Z,73.98
2023-05-05T15:08:08.330Z,74.81
2023-05-05T15:10:34.728Z,74.69
2023-05-05T15:13:01.156Z,75.01
2023-05-05T15:15:27.636Z,74.82
2023-05-05T15:17:54.174Z,75.68
2023-05-05T15:20:20.602Z,75.47
2023-05-05T15:22:48.990Z,73.90
2023-05-05T15:25:16.203Z,75.54
2023-05-05T15:27:42.753Z,74.90
2023-05-05T15:30:10.308Z,74.77
2023-05-05T15:32:37.080Z,74.60
2023-05-05T15:35:03.629Z,74.55
2023-05-05T15:37:30.593Z,74.78
2023-05-05T15:39:57.052Z,72.70
2023-05-05T15:42:23.519Z,73.12
2023-05-05T15:44:50.469Z,73.25
2023-05-05T15:47:17.150Z,75.31
2023-05-05T15:49:43.673Z,75.13
2023-05-05T15:52:10.164Z,73.39
2023-05-05T15:54:36.571Z,73.80
2023-05-05T15:57:04.354Z,73.63
2023-05-05T15:59:30.775Z,74.36
2023-05-05T16:01:57.131Z,73.63
2023-05-05T16:04:23.711Z,73.81
2023-05-05T16:06:50.263Z,74.97
2023-05-05T16:09:17.566Z,73.64
2023-05-05T16:11:43.937Z,73.25
2023-05-05T16:14:10.484Z,72.79
2023-05-05T16:16:37.124Z,72.17
2023-05-05T16:19:03.936Z,72.25
2023-05-05T16:21:30.943Z,71.01
2023-05-05T16:23:57.315Z,71.80
2023-05-05T16:26:23.719Z,71.55
2023-05-05T16:28:50.291Z,70.31
2023-05-05T16:31:16.737Z,69.85
2023-05-05T16:33:43.671Z,70.69
2023-05-05T16:36:12.243Z,70.27
2023-05-05T16:38:39.872Z,69.72
2023-05-05T16:41:09.520Z,70.80
2023-05-05T16:43:37.103Z,71.91
2023-05-05T16:46:04.028Z,70.09
2023-05-05T16:48:30.504Z,70.70
2023-05-05T16:50:57.829Z,71.31
2023-05-05T16:53:25.189Z,69.78
2023-05-05T16:55:52.617Z,70.51
2023-05-05T16:58:20.369Z,70.98
2023-05-05T17:00:48.708Z,69.76
2023-05-05T17:03:20.141Z,72.69
2023-05-05T17:05:49.818Z,70.44
2023-05-05T17:08:16.573Z,73.01
2023-05-05T17:10:44.056Z,71.69
2023-05-05T17:13:11.758Z,71.63
2023-05-05T17:15:38.746Z,71.45
2023-05-05T17:18:06.479Z,70.91
2023-05-05T17:20:33.337Z,71.60
2023-05-05T17:23:02.024Z,73.24
2023-05-05T17:25:28.770Z,70.36
2023-05-05T17:27:56.089Z,71.45
2023-05-05T17:30:23.660Z,74.47
2023-05-05T17:32:50.092Z,72.98
2023-05-05T17:35:16.813Z,72.36
2023-05-05T17:37:43.325Z,72.05
2023-05-05T17:40:10.087Z,72.42
2023-05-05T17:42:36.531Z,71.65
2023-05-05T17:45:03.166Z,73.06
2023-05-05T17:47:30.163Z,72.13
2023-05-05T17:49:56.861Z,74.83
2023-05-05T17:52:24.201Z,72.07
2023-05-05T17:54:51.012Z,75.40
2023-05-05T17:57:20.901Z,72.82
2023-05-05T17:59:49.595Z,75.70
2023-05-05T18:02:17.089Z,74.05
2023-05-05T18:04:43.538Z,76.63
2023-05-05T18:07:11.926Z,77.04
2023-05-05T18:09:38.979Z,74.42
2023-05-05T18:12:05.777Z,74.23
2023-05-05T18:14:32.325Z,75.73
2023-05-05T18:16:58.903Z,73.73
2023-05-05T18:19:25.455Z,73.61
2023-05-05T18:21:54.162Z,74.86
2023-05-05T18:24:20.888Z,75.24
2023-05-05T18:26:50.255Z,77.53
2023-05-05T18:29:17.790Z,73.53
2023-05-05T18:31:46.016Z,75.99
2023-05-05T18:34:12.560Z,76.82
2023-05-05T18:36:39.065Z,76.58
2023-05-05T18:39:05.449Z,75.95
2023-05-05T18:41:32.210Z,73.76
2023-05-05T18:43:58.643Z,74.43
2023-05-05T18:46:25.398Z,71.74
2023-05-05T18:48:51.826Z,74.12
2023-05-05T18:51:18.251Z,75.04
2023-05-05T18:53:44.713Z,73.44
2023-05-05T18:56:11.247Z,74.66
2023-05-05T18:58:37.789Z,75.58
2023-05-05T19:01:04.275Z,76.33
2023-05-05T19:03:30.807Z,77.37
2023-05-05T19:05:57.291Z,77.38
2023-05-05T19:08:23.825Z,76.88
2023-05-05T19:10:50.289Z,73.52
2023-05-05T19:13:16.853Z,75.72
2023-05-05T19:15:43.497Z,73.53
2023-05-05T19:18:10.072Z,73.31
2023-05-05T19:20:38.467Z,73.84
2023-05-05T19:23:05.196Z,73.29
2023-05-05T19:25:31.720Z,76.00
2023-05-05T19:27:58.317Z,74.14
2023-05-05T19:30:25.160Z,74.11
2023-05-05T19:32:51.633Z,73.60
2023-05-05T19:35:18.480Z,72.54
2023-05-05T19:37:45.182Z,72.34
2023-05-05T19:40:12.830Z,73.45
2023-05-05T19:42:40.167Z,73.26
2023-05-05T19:45:07.384Z,76.08
2023-05-05T19:47:33.901Z,73.77
2023-05-05T19:50:00.362Z,72.81
2023-05-05T19:52:26.830Z,73.00
2023-05-05T19:54:53.488Z,75.79
2023-05-05T19:57:19.997Z,74.98
2023-05-05T19:59:49.522Z,75.72
2023-05-05T20:02:16.994Z,75.20
2023-05-05T20:04:43.627Z,76.62
2023-05-05T20:07:10.939Z,77.96
2023-05-05T20:09:37.823Z,77.32
2023-05-05T20:12:04.527Z,74.88
2023-05-05T20:14:30.906Z,74.64
2023-05-05T20:16:57.367Z,76.03
2023-05-05T20:19:23.939Z,77.42
2023-05-05T20:21:50.359Z,76.21
2023-05-05T20:24:17.288Z,75.55
2023-05-05T20:26:43.771Z,75.88
2023-05-05T20:29:10.161Z,75.80
2023-05-05T20:31:37.422Z,75.18
2023-05-05T20:34:03.923Z,76.12
2023-05-05T20:36:30.352Z,75.38
2023-05-05T20:38:56.686Z,75.36
2023-05-05T20:41:23.175Z,75.35
2023-05-05T20:43:49.720Z,74.82
2023-05-05T20:46:16.526Z,74.72
2023-05-05T20:48:43.253Z,78.42
2023-05-05T20:51:09.847Z,76.44
2023-05-05T20:53:36.265Z,76.90
2023-05-05T20:56:02.730Z,75.76
2023-05-05T20:58:29.871Z,76.46
2023-05-05T21:00:56.417Z,77.57
2023-05-05T21:03:22.886Z,75.92
2023-05-05T21:05:49.818Z,75.25
2023-05-05T21:08:16.252Z,75.13
2023-05-05T21:10:42.726Z,76.52
2023-05-05T21:13:09.138Z,77.79
2023-05-05T21:15:38.602Z,76.99
2023-05-05T21:18:05.256Z,76.34
2023-05-05T21:20:31.678Z,77.07
2023-05-05T21:22:58.024Z,76.00
2023-05-05T21:25:25.054Z,75.72
2023-05-05T21:27:51.495Z,76.25
2023-05-05T21:30:18.270Z,75.39
2023-05-05T21:32:45.266Z,80.52
2023-05-05T21:35:11.786Z,75.71
2023-05-05T21:37:41.471Z,75.34
2023-05-05T21:40:13.632Z,75.14
2023-05-05T21:42:41.355Z,74.92
2023-05-05T21:45:08.460Z,76.00
2023-05-05T21:47:34.962Z,76.36
2023-05-05T21:50:01.358Z,74.98
2023-05-05T21:52:27.833Z,77.02
2023-05-05T21:54:54.276Z,76.73
2023-05-05T21:57:20.846Z,77.17
2023-05-05T21:59:47.516Z,77.23
2023-05-05T22:02:14.055Z,77.56
2023-05-05T22:04:40.415Z,77.94
2023-05-05T22:07:06.917Z,77.54
2023-05-05T22:09:34.095Z,77.04
2023-05-05T22:12:00.633Z,77.09
2023-05-05T22:14:27.031Z,78.06
2023-05-05T22:16:53.585Z,79.01
2023-05-05T22:19:19.958Z,78.67
2023-05-05T22:21:46.462Z,79.54
2023-05-05T22:24:13.120Z,80.44
2023-05-05T22:26:43.371Z,81.08
2023-05-05T22:29:11.004Z,80.26
2023-05-05T22:31:37.597Z,80.78
2023-05-05T22:34:04.298Z,80.29
2023-05-05T22:36:31.351Z,81.13
2023-05-05T22:38:57.812Z,79.85
2023-05-05T22:41:24.508Z,79.62
2023-05-05T22:43:51.246Z,78.49
2023-05-05T22:46:17.826Z,78.31
2023-05-05T22:48:44.221Z,77.45
2023-05-05T22:51:11.266Z,77.36
2023-05-05T22:53:38.787Z,77.83
2023-05-05T22:56:06.228Z,78.69
2023-05-05T22:58:32.755Z,79.02
2023-05-05T23:00:59.419Z,78.25
2023-05-05T23:03:25.999Z,77.82
2023-05-05T23:05:52.397Z,79.33
2023-05-05T23:08:20.220Z,78.56
2023-05-05T23:10:46.639Z,81.12
2023-05-05T23:13:13.118Z,79.93
2023-05-05T23:15:40.937Z,80.29
2023-05-05T23:18:07.476Z,81.45
2023-05-05T23:20:33.931Z,81.20
2023-05-05T23:23:00.352Z,82.98
2023-05-05T23:25:26.756Z,81.34
2023-05-05T23:27:53.265Z,81.28
2023-05-05T23:30:19.838Z,81.67
2023-05-05T23:32:46.413Z,79.59
2023-05-05T23:35:12.972Z,81.15
2023-05-05T23:37:39.580Z,81.87
2023-05-05T23:40:06.807Z,82.99
2023-05-05T23:42:33.202Z,81.15
2023-05-05T23:44:59.604Z,82.37
2023-05-05T23:47:26.198Z,84.14
2023-05-05T23:49:52.632Z,83.50
2023-05-05T23:52:19.125Z,84.04
2023-05-05T23:54:45.651Z,84.23
2023-05-05T23:57:12.088Z,82.98
2023-05-05T23:59:39.190Z,83.64
